Gladwin, MI (48624)

9:55 AM EDT on May 30, 2015 (GMT -0400)
RAWS | | Change Station
CLOSE
Current Station
Personal Weather Station
Location: Alger, MI
Elevation: 783 ft
Nearby Weather Stations

Elev 783 ft 44.13 °N, 84.12 °W | Updated 54 minutes ago

Rain
Rain
67 °F
Feels Like 67 °F
N
3
Wind Variable Wind from NNE
Gusts 8.0 mph

Today
High -- | Low -- °F
--% Chance of Precip.
Yesterday
High -- | Low -- °F
Precip. -- in
5:59 AM 9:12 PM
Waxing Gibbous, 90% visible
Pressure 30.01 in
Visibility 6.0 miles
Clouds Mostly Cloudy 700 ft
Overcast 7000 ft
Dew Point 65 °F
Humidity 92%
Rainfall in
Snow Depth Not available.
UV 1 out of 12
Pollen 4.20 out of 12
Air Quality Not available.
Flu Activity Sporadic
SPECI KHTL 301330Z AUTO 33006KT 6SM -RA BR BKN007 OVC070 15/14 A3001 RMK AO2 RAB1259 CIG 005V012 P0000 T01500139 $

More Conditions Fewer Conditions

Pressure 30.01 in
Visibility 6.0 miles
Clouds Mostly Cloudy 700 ft
Overcast 7000 ft
Dew Point 65 °F
Humidity 92%
Rainfall in
Snow Depth Not available.
UV 1 out of 12
Pollen 4.20 out of 12
Air Quality Not available.
Flu Activity Sporadic
SPECI KHTL 301330Z AUTO 33006KT 6SM -RA BR BKN007 OVC070 15/14 A3001 RMK AO2 RAB1259 CIG 005V012 P0000 T01500139 $

More Conditions Fewer Conditions

Nowcast | as of 8:00 am EDT on May 30, 2015

At 9 am...rain. Temperature 65. Northwest winds 7 mph. At 11 am...rain. Temperature 64. Northwest winds 9 mph. At 1 PM...rain. Temperature 58. North winds 10 mph. At 3 PM...rain. Temperature 53. North winds 11 mph.

×

10-Day Weather Forecast

Almanac

Astronomy

May. 30, 2015 Rise Set
Actual Time
Civil Twilight
Nautical Twilight
Astronomical Twilight
Moon
Length of Visible Light
Length of Day
Tomorrow will be .
, % of the Moon is Illuminated

Today's Extremes

State Highs State Lows

Community

WunderPhotos

Upload Photos

1,825,510 photos uploaded!

WunderBlogs® & News

Nearby

Air Quality

  Air Quality AQ Index Pollutant
Not available.

Snow Depth

Station Depth Elevation

Earthquake Activity

City Distance Mag. Time & Date
Minimum magnitude displayed is 2.5.

Coastal Water Temperatures

Place Temperature

Stations

Nearby Weather Stations

Station Location Temp. Windchill Dew Point Humidity Wind Precip. Elev Updated Type